Weather at Vencerámica La Victoria Heliport

Public forecast

Using degrees Celsius for public forecast. Weather courtesy of forecast.io.

Closest aviation weather report (METAR) to Vencerámica La Victoria Heliport

Closest report is Arturo Michelena International Airport, 28.7 nm (53.2 km) W.

2023/01/26 21:00 (retrieved 44 minutes ago)

SVVA 262100Z /////KT 9999 FEW016 29/19 Q1013

Closest aviation forecast (TAF) to Vencerámica La Victoria Heliport

Closest forecast is Simón Bolívar International Airport, 35.0 nm (64.7 km) NE.

2023/01/26 18:00 (retrieved 4 hours ago)

TAF SVMI 261600Z 2618/2718 09006KT 9999 FEW016 SCT100 TX32/2618Z TN22/2707Z TEMPO 2619/2623 09003KT 9999 FEW016 SCT090